sensor_id;sensor_type;location;lat;lon;timestamp;temperature;humidity
44731;DHT22;30458;47.448;19.032;2023-03-23T00:09:23;11.00;93.60
44731;DHT22;30458;47.448;19.032;2023-03-23T00:19:24;10.90;93.70
44731;DHT22;30458;47.448;19.032;2023-03-23T00:29:25;10.80;93.80
44731;DHT22;30458;47.448;19.032;2023-03-23T00:39:30;10.80;93.70
44731;DHT22;30458;47.448;19.032;2023-03-23T00:49:31;10.70;93.80
44731;DHT22;30458;47.448;19.032;2023-03-23T00:59:35;10.40;93.90
44731;DHT22;30458;47.448;19.032;2023-03-23T01:09:40;10.40;94.00
44731;DHT22;30458;47.448;19.032;2023-03-23T01:19:49;10.20;94.30
44731;DHT22;30458;47.448;19.032;2023-03-23T01:29:49;10.10;94.30
44731;DHT22;30458;47.448;19.032;2023-03-23T01:39:53;10.00;94.40
44731;DHT22;30458;47.448;19.032;2023-03-23T01:49:54;9.90;94.50
44731;DHT22;30458;47.448;19.032;2023-03-23T02:00:00;9.90;94.60
44731;DHT22;30458;47.448;19.032;2023-03-23T02:10:14;9.90;94.40
44731;DHT22;30458;47.448;19.032;2023-03-23T02:41:03;9.60;94.60
44731;DHT22;30458;47.448;19.032;2023-03-23T02:51:10;9.60;94.50
44731;DHT22;30458;47.448;19.032;2023-03-23T03:11:37;9.40;94.90
44731;DHT22;30458;47.448;19.032;2023-03-23T03:21:42;9.30;95.00
44731;DHT22;30458;47.448;19.032;2023-03-23T03:31:46;9.30;95.00
44731;DHT22;30458;47.448;19.032;2023-03-23T03:41:48;9.10;95.20
44731;DHT22;30458;47.448;19.032;2023-03-23T03:51:50;9.10;94.90
44731;DHT22;30458;47.448;19.032;2023-03-23T04:01:57;9.00;95.00
44731;DHT22;30458;47.448;19.032;2023-03-23T04:11:58;9.00;95.10
44731;DHT22;30458;47.448;19.032;2023-03-23T04:22:21;8.90;95.20
44731;DHT22;30458;47.448;19.032;2023-03-23T04:32:26;8.80;95.20
44731;DHT22;30458;47.448;19.032;2023-03-23T04:42:30;8.70;95.20
44731;DHT22;30458;47.448;19.032;2023-03-23T04:52:50;8.70;95.40
44731;DHT22;30458;47.448;19.032;2023-03-23T05:02:53;8.70;95.30
44731;DHT22;30458;47.448;19.032;2023-03-23T05:12:58;8.70;95.20
44731;DHT22;30458;47.448;19.032;2023-03-23T05:22:59;8.80;95.30
44731;DHT22;30458;47.448;19.032;2023-03-23T05:33:07;9.30;95.30
44731;DHT22;30458;47.448;19.032;2023-03-23T05:43:47;10.00;94.00
44731;DHT22;30458;47.448;19.032;2023-03-23T05:54:02;11.30;93.30
44731;DHT22;30458;47.448;19.032;2023-03-23T06:04:05;12.90;91.90
44731;DHT22;30458;47.448;19.032;2023-03-23T06:14:16;14.20;90.20
44731;DHT22;30458;47.448;19.032;2023-03-23T06:24:18;15.50;87.40
44731;DHT22;30458;47.448;19.032;2023-03-23T06:34:19;16.40;85.60
44731;DHT22;30458;47.448;19.032;2023-03-23T06:44:50;17.90;81.50
44731;DHT22;30458;47.448;19.032;2023-03-23T06:54:52;19.30;78.50
44731;DHT22;30458;47.448;19.032;2023-03-23T07:04:54;19.90;75.60
44731;DHT22;30458;47.448;19.032;2023-03-23T07:14:57;20.80;73.40
44731;DHT22;30458;47.448;19.032;2023-03-23T07:24:58;21.00;71.80
44731;DHT22;30458;47.448;19.032;2023-03-23T07:35:05;22.40;69.50
44731;DHT22;30458;47.448;19.032;2023-03-23T07:45:43;23.30;66.50
44731;DHT22;30458;47.448;19.032;2023-03-23T07:55:46;23.00;66.30
44731;DHT22;30458;47.448;19.032;2023-03-23T08:06:21;22.90;67.30
44731;DHT22;30458;47.448;19.032;2023-03-23T08:16:48;22.80;65.40
44731;DHT22;30458;47.448;19.032;2023-03-23T08:27:07;20.50;69.30
44731;DHT22;30458;47.448;19.032;2023-03-23T08:37:26;20.10;70.40
44731;DHT22;30458;47.448;19.032;2023-03-23T08:47:52;20.80;70.90
44731;DHT22;30458;47.448;19.032;2023-03-23T08:58:13;20.50;69.80
44731;DHT22;30458;47.448;19.032;2023-03-23T09:08:32;19.70;72.00
44731;DHT22;30458;47.448;19.032;2023-03-23T09:18:36;19.80;73.50
44731;DHT22;30458;47.448;19.032;2023-03-23T09:28:37;19.80;73.20
44731;DHT22;30458;47.448;19.032;2023-03-23T09:38:38;19.80;72.90
44731;DHT22;30458;47.448;19.032;2023-03-23T09:49:04;19.20;73.70
44731;DHT22;30458;47.448;19.032;2023-03-23T10:09:19;19.10;73.90
44731;DHT22;30458;47.448;19.032;2023-03-23T10:19:34;19.20;74.90
44731;DHT22;30458;47.448;19.032;2023-03-23T10:40:21;19.30;74.10
44731;DHT22;30458;47.448;19.032;2023-03-23T10:50:30;19.40;74.20
44731;DHT22;30458;47.448;19.032;2023-03-23T11:00:43;19.50;72.00
44731;DHT22;30458;47.448;19.032;2023-03-23T11:10:54;19.60;71.40
44731;DHT22;30458;47.448;19.032;2023-03-23T11:20:57;19.60;71.10
44731;DHT22;30458;47.448;19.032;2023-03-23T11:31:02;19.60;71.10
44731;DHT22;30458;47.448;19.032;2023-03-23T11:41:16;19.90;70.60
44731;DHT22;30458;47.448;19.032;2023-03-23T12:01:50;19.90;69.60
44731;DHT22;30458;47.448;19.032;2023-03-23T12:12:16;19.80;70.50
44731;DHT22;30458;47.448;19.032;2023-03-23T12:22:44;20.00;70.40
44731;DHT22;30458;47.448;19.032;2023-03-23T12:53:52;20.50;69.00
44731;DHT22;30458;47.448;19.032;2023-03-23T13:04:12;20.60;69.30
44731;DHT22;30458;47.448;19.032;2023-03-23T13:24:23;20.70;69.40
44731;DHT22;30458;47.448;19.032;2023-03-23T13:34:31;20.50;69.10
44731;DHT22;30458;47.448;19.032;2023-03-23T13:44:43;20.80;69.20
44731;DHT22;30458;47.448;19.032;2023-03-23T13:54:47;20.90;69.10
44731;DHT22;30458;47.448;19.032;2023-03-23T14:04:50;20.80;69.10
44731;DHT22;30458;47.448;19.032;2023-03-23T14:15:04;20.80;68.90
44731;DHT22;30458;47.448;19.032;2023-03-23T14:25:13;20.80;69.00
44731;DHT22;30458;47.448;19.032;2023-03-23T14:35:21;20.70;69.10
44731;DHT22;30458;47.448;19.032;2023-03-23T14:45:25;20.60;69.40
44731;DHT22;30458;47.448;19.032;2023-03-23T14:55:31;20.50;69.60
44731;DHT22;30458;47.448;19.032;2023-03-23T15:05:38;20.50;69.80
44731;DHT22;30458;47.448;19.032;2023-03-23T15:15:43;20.50;69.80
44731;DHT22;30458;47.448;19.032;2023-03-23T15:25:53;20.60;69.40
44731;DHT22;30458;47.448;19.032;2023-03-23T15:35:56;20.60;69.40
44731;DHT22;30458;47.448;19.032;2023-03-23T15:56:12;20.30;70.40
44731;DHT22;30458;47.448;19.032;2023-03-23T16:06:15;20.20;70.90
44731;DHT22;30458;47.448;19.032;2023-03-23T16:16:46;20.20;70.80
44731;DHT22;30458;47.448;19.032;2023-03-23T16:26:48;20.10;71.20
44731;DHT22;30458;47.448;19.032;2023-03-23T16:36:48;19.80;71.90
44731;DHT22;30458;47.448;19.032;2023-03-23T16:46:49;19.60;72.50
44731;DHT22;30458;47.448;19.032;2023-03-23T16:56:50;19.50;73.30
44731;DHT22;30458;47.448;19.032;2023-03-23T17:06:51;19.30;73.80
44731;DHT22;30458;47.448;19.032;2023-03-23T17:16:57;19.10;74.50
44731;DHT22;30458;47.448;19.032;2023-03-23T17:26:57;19.00;75.90
44731;DHT22;30458;47.448;19.032;2023-03-23T17:37:04;18.70;77.70
44731;DHT22;30458;47.448;19.032;2023-03-23T17:47:04;18.60;78.40
44731;DHT22;30458;47.448;19.032;2023-03-23T17:57:05;18.60;78.70
44731;DHT22;30458;47.448;19.032;2023-03-23T18:07:06;18.50;78.80
44731;DHT22;30458;47.448;19.032;2023-03-23T18:17:08;18.40;78.20
44731;DHT22;30458;47.448;19.032;2023-03-23T18:27:08;18.20;78.40
44731;DHT22;30458;47.448;19.032;2023-03-23T18:37:11;18.00;77.90
44731;DHT22;30458;47.448;19.032;2023-03-23T18:47:12;18.00;77.60
44731;DHT22;30458;47.448;19.032;2023-03-23T18:57:18;17.90;77.50
44731;DHT22;30458;47.448;19.032;2023-03-23T19:07:22;17.90;77.80
44731;DHT22;30458;47.448;19.032;2023-03-23T19:17:22;17.70;78.00
44731;DHT22;30458;47.448;19.032;2023-03-23T19:27:26;17.60;78.00
44731;DHT22;30458;47.448;19.032;2023-03-23T19:37:27;17.50;78.40
44731;DHT22;30458;47.448;19.032;2023-03-23T19:47:30;17.00;79.50
44731;DHT22;30458;47.448;19.032;2023-03-23T19:57:33;16.70;80.50
44731;DHT22;30458;47.448;19.032;2023-03-23T20:07:36;16.60;81.10
44731;DHT22;30458;47.448;19.032;2023-03-23T20:17:37;16.80;81.00
44731;DHT22;30458;47.448;19.032;2023-03-23T20:27:38;16.60;82.00
44731;DHT22;30458;47.448;19.032;2023-03-23T20:37:41;16.20;83.20
44731;DHT22;30458;47.448;19.032;2023-03-23T20:47:45;16.30;83.40
44731;DHT22;30458;47.448;19.032;2023-03-23T20:57:48;16.20;84.30
44731;DHT22;30458;47.448;19.032;2023-03-23T21:07:49;16.30;83.90
44731;DHT22;30458;47.448;19.032;2023-03-23T21:17:53;16.30;84.00
44731;DHT22;30458;47.448;19.032;2023-03-23T21:27:54;16.10;84.20
44731;DHT22;30458;47.448;19.032;2023-03-23T21:37:56;16.00;84.40
44731;DHT22;30458;47.448;19.032;2023-03-23T21:47:57;16.00;84.10
44731;DHT22;30458;47.448;19.032;2023-03-23T21:58:00;16.00;84.10
44731;DHT22;30458;47.448;19.032;2023-03-23T22:08:03;15.90;84.50
44731;DHT22;30458;47.448;19.032;2023-03-23T22:18:11;15.80;84.80
44731;DHT22;30458;47.448;19.032;2023-03-23T22:28:14;15.60;84.50
44731;DHT22;30458;47.448;19.032;2023-03-23T22:38:19;15.50;85.40
44731;DHT22;30458;47.448;19.032;2023-03-23T22:48:21;15.40;85.80
44731;DHT22;30458;47.448;19.032;2023-03-23T22:58:24;15.30;85.80
44731;DHT22;30458;47.448;19.032;2023-03-23T23:08:26;15.10;86.60
44731;DHT22;30458;47.448;19.032;2023-03-23T23:18:29;15.00;86.80
44731;DHT22;30458;47.448;19.032;2023-03-23T23:28:30;14.90;87.30
44731;DHT22;30458;47.448;19.032;2023-03-23T23:38:31;14.80;87.80
44731;DHT22;30458;47.448;19.032;2023-03-23T23:48:32;14.70;88.00
44731;DHT22;30458;47.448;19.032;2023-03-23T23:58:34;14.70;88.00
